Time;durP1;ratioP1;P1;durP2;ratioP2;P2;SDS_P1;SDS_P2;PMS_P1;PMS_P2;Temp;Humidity;BMP_temperature;BMP_pressure;BME280_temperature;BME280_humidity;BME280_pressure;Samples;Min_cycle;Max_cycle;Signal;HPM_P1;HPM_P2
2023/09/18 00:00:44;;;;;;;1.98;1.88;;;;;;;;;;5056482;28;20021;-25
2023/09/18 00:03:10;;;;;;;1.88;1.77;;;;;;;;;;5056328;28;20105;-25
2023/09/18 00:05:36;;;;;;;1.95;1.85;;;;;;;;;;5056372;28;20025;-21
2023/09/18 00:08:02;;;;;;;1.42;1.42;;;;;;;;;;5056876;28;20029;-23
2023/09/18 00:10:30;;;;;;;1.60;1.60;;;;;;;;;;5056263;28;20025;-20
2023/09/18 00:12:56;;;;;;;1.70;1.60;;;;;;;;;;5056230;28;20035;-21
2023/09/18 00:15:22;;;;;;;1.80;1.70;;;;;;;;;;5056061;28;20037;-19
2023/09/18 00:17:49;;;;;;;2.13;2.03;;;;;;;;;;5056143;28;20078;-21
2023/09/18 00:20:17;;;;;;;1.73;1.63;;;;;;;;;;5056343;28;20150;-20
2023/09/18 00:22:43;;;;;;;1.83;1.73;;;;;;;;;;5055792;28;20017;-23
2023/09/18 00:25:10;;;;;;;1.70;1.60;;;;;;;;;;5055969;28;20384;-21
2023/09/18 00:27:36;;;;;;;1.80;1.70;;;;;;;;;;5055984;28;20028;-20
2023/09/18 00:30:02;;;;;;;1.85;1.75;;;;;;;;;;5055850;28;20017;-21
2023/09/18 00:32:29;;;;;;;1.90;1.80;;;;;;;;;;5056119;28;20100;-19
2023/09/18 00:34:55;;;;;;;1.75;1.65;;;;;;;;;;5055762;28;20037;-19
2023/09/18 00:37:21;;;;;;;2.10;2.00;;;;;;;;;;5055914;28;20416;-20
2023/09/18 00:39:47;;;;;;;1.80;1.70;;;;;;;;;;5055981;28;20025;-22
2023/09/18 00:42:13;;;;;;;1.85;1.75;;;;;;;;;;5055643;28;20048;-21
2023/09/18 00:44:43;;;;;;;1.70;1.60;;;;;;;;;;5055791;28;20080;-18
2023/09/18 00:47:09;;;;;;;1.55;1.45;;;;;;;;;;5055589;28;20213;-22
2023/09/18 00:49:37;;;;;;;1.80;1.70;;;;;;;;;;5055796;28;20029;-20
2023/09/18 00:52:04;;;;;;;1.73;1.63;;;;;;;;;;5055475;28;20060;-19
2023/09/18 00:54:30;;;;;;;1.60;1.50;;;;;;;;;;5055474;28;20468;-20
2023/09/18 00:56:56;;;;;;;1.80;1.70;;;;;;;;;;5055241;28;20021;-22
2023/09/18 00:59:22;;;;;;;1.52;1.52;;;;;;;;;;5055623;28;20025;-21
2023/09/18 01:01:49;;;;;;;1.48;1.48;;;;;;;;;;5055322;28;20391;-21
2023/09/18 01:04:16;;;;;;;1.70;1.60;;;;;;;;;;5055338;28;20025;-21
2023/09/18 01:06:42;;;;;;;1.60;1.50;;;;;;;;;;5055245;28;20029;-21
2023/09/18 01:09:12;;;;;;;1.98;1.88;;;;;;;;;;5035033;28;20021;-19
2023/09/18 01:11:50;;;;;;;1.90;1.80;;;;;;;;;;5055088;28;20028;-20
2023/09/18 01:14:32;;;;;;;1.65;1.60;;;;;;;;;;5055194;28;20029;-26
2023/09/18 01:16:59;;;;;;;1.83;1.73;;;;;;;;;;5054895;28;20029;-19
2023/09/18 01:19:39;;;;;;;1.95;1.85;;;;;;;;;;5055257;28;20064;-19
2023/09/18 01:22:06;;;;;;;2.20;2.10;;;;;;;;;;5055203;28;20021;-23
2023/09/18 01:24:33;;;;;;;1.38;1.38;;;;;;;;;;5054713;28;20377;-21
2023/09/18 01:26:59;;;;;;;2.00;1.90;;;;;;;;;;5055134;28;20352;-24
2023/09/18 01:29:25;;;;;;;1.85;1.75;;;;;;;;;;5054783;28;20037;-24
2023/09/18 01:31:51;;;;;;;1.48;1.48;;;;;;;;;;5055060;28;20025;-25
2023/09/18 01:34:20;;;;;;;1.77;1.67;;;;;;;;;;5054683;28;20434;-19
2023/09/18 01:36:47;;;;;;;1.45;1.45;;;;;;;;;;5054633;28;20028;-19
2023/09/18 01:39:13;;;;;;;1.67;1.58;;;;;;;;;;5054980;28;20402;-21
2023/09/18 01:41:40;;;;;;;2.00;1.90;;;;;;;;;;5054608;28;20036;-21
2023/09/18 01:44:06;;;;;;;1.38;1.38;;;;;;;;;;5054475;28;20017;-22
2023/09/18 01:46:35;;;;;;;1.52;1.52;;;;;;;;;;5054866;28;20023;-22
2023/09/18 01:49:02;;;;;;;1.60;1.50;;;;;;;;;;5054879;28;20135;-22
2023/09/18 01:51:28;;;;;;;1.30;1.30;;;;;;;;;;5054818;28;20450;-24
2023/09/18 01:53:55;;;;;;;1.70;1.60;;;;;;;;;;5054436;28;20031;-22
2023/09/18 01:56:21;;;;;;;1.27;1.27;;;;;;;;;;5054428;28;20021;-22
2023/09/18 01:58:47;;;;;;;1.70;1.60;;;;;;;;;;5054446;28;20340;-24
2023/09/18 02:01:13;;;;;;;1.60;1.50;;;;;;;;;;5054726;28;20087;-20
2023/09/18 02:03:41;;;;;;;2.10;2.00;;;;;;;;;;5054629;28;20025;-21
2023/09/18 02:06:10;;;;;;;1.63;1.60;;;;;;;;;;5054419;28;20021;-18
2023/09/18 02:08:37;;;;;;;1.85;1.75;;;;;;;;;;5054685;28;20053;-21
2023/09/18 02:11:04;;;;;;;1.67;1.58;;;;;;;;;;5033530;28;20464;-23
2023/09/18 02:13:30;;;;;;;1.40;1.40;;;;;;;;;;5046607;28;20036;-22
2023/09/18 02:15:57;;;;;;;1.50;1.50;;;;;;;;;;5054254;28;20411;-20
2023/09/18 02:18:23;;;;;;;1.70;1.60;;;;;;;;;;5054349;28;20025;-25
2023/09/18 02:20:49;;;;;;;1.70;1.60;;;;;;;;;;5054318;28;20036;-19
2023/09/18 02:23:19;;;;;;;1.35;1.35;;;;;;;;;;5056328;28;20049;-21
2023/09/18 02:25:45;;;;;;;1.70;1.60;;;;;;;;;;5058785;28;20048;-21
2023/09/18 02:28:11;;;;;;;1.42;1.42;;;;;;;;;;5058495;28;20036;-21
2023/09/18 02:30:37;;;;;;;1.67;1.58;;;;;;;;;;5058476;28;20029;-23
2023/09/18 02:33:04;;;;;;;1.50;1.40;;;;;;;;;;5058090;28;20029;-20
2023/09/18 02:35:30;;;;;;;1.63;1.52;;;;;;;;;;5058256;28;20028;-18
2023/09/18 02:37:57;;;;;;;1.33;1.33;;;;;;;;;;5057978;28;20020;-27
2023/09/18 02:40:23;;;;;;;1.80;1.70;;;;;;;;;;5058023;28;20083;-20
2023/09/18 02:42:49;;;;;;;1.70;1.60;;;;;;;;;;5057944;28;20017;-19
2023/09/18 02:45:15;;;;;;;1.60;1.50;;;;;;;;;;5057817;28;20044;-21
2023/09/18 02:47:42;;;;;;;1.58;1.52;;;;;;;;;;5057880;28;20447;-21
2023/09/18 02:50:10;;;;;;;1.73;1.63;;;;;;;;;;5057795;28;20043;-23
2023/09/18 02:52:36;;;;;;;1.80;1.70;;;;;;;;;;5057762;28;20321;-21
2023/09/18 02:55:03;;;;;;;1.60;1.52;;;;;;;;;;5057704;28;20021;-18
2023/09/18 02:57:29;;;;;;;1.73;1.63;;;;;;;;;;5057875;28;20060;-19
2023/09/18 02:59:55;;;;;;;1.65;1.55;;;;;;;;;;5058158;28;20033;-21
2023/09/18 03:02:21;;;;;;;1.30;1.30;;;;;;;;;;5057835;28;20025;-22
2023/09/18 03:04:48;;;;;;;1.40;1.30;;;;;;;;;;5057458;28;20032;-19
2023/09/18 03:07:14;;;;;;;1.58;1.55;;;;;;;;;;5057766;28;20055;-19
2023/09/18 03:09:40;;;;;;;1.63;1.58;;;;;;;;;;5057729;28;20089;-21
2023/09/18 03:12:06;;;;;;;1.50;1.40;;;;;;;;;;5057629;28;20375;-22
2023/09/18 03:14:32;;;;;;;1.42;1.40;;;;;;;;;;5057284;28;20360;-23
2023/09/18 03:16:58;;;;;;;1.35;1.27;;;;;;;;;;5057215;28;20474;-22
2023/09/18 03:19:26;;;;;;;1.40;1.40;;;;;;;;;;5057526;28;20108;-24
2023/09/18 03:21:52;;;;;;;1.80;1.70;;;;;;;;;;5057228;28;20322;-23
2023/09/18 03:24:19;;;;;;;1.65;1.55;;;;;;;;;;5056985;28;20045;-19
2023/09/18 03:26:45;;;;;;;1.70;1.60;;;;;;;;;;5057382;28;20056;-19
2023/09/18 03:29:11;;;;;;;1.60;1.50;;;;;;;;;;5057397;28;20425;-18
2023/09/18 03:31:37;;;;;;;1.60;1.50;;;;;;;;;;5057058;28;20035;-20
2023/09/18 03:34:03;;;;;;;1.70;1.60;;;;;;;;;;5056495;28;20040;-21
2023/09/18 03:36:29;;;;;;;1.58;1.48;;;;;;;;;;5057094;28;20102;-22
2023/09/18 03:38:55;;;;;;;1.60;1.55;;;;;;;;;;5057148;28;20025;-20
2023/09/18 03:41:21;;;;;;;1.40;1.33;;;;;;;;;;5056839;28;20025;-19
2023/09/18 03:43:49;;;;;;;1.98;1.88;;;;;;;;;;5056731;28;20021;-22
2023/09/18 03:46:15;;;;;;;1.27;1.20;;;;;;;;;;5056613;28;20048;-19
2023/09/18 03:48:41;;;;;;;1.90;1.80;;;;;;;;;;5056615;28;20029;-20
2023/09/18 03:51:12;;;;;;;1.65;1.55;;;;;;;;;;5056680;28;20032;-21
2023/09/18 03:53:38;;;;;;;1.88;1.77;;;;;;;;;;5056479;28;20036;-22
2023/09/18 03:56:04;;;;;;;1.85;1.75;;;;;;;;;;5056468;28;20029;-19
2023/09/18 03:58:31;;;;;;;1.55;1.55;;;;;;;;;;5056780;28;20120;-21
2023/09/18 04:00:57;;;;;;;1.52;1.42;;;;;;;;;;5056658;28;20100;-25
2023/09/18 04:03:23;;;;;;;1.73;1.63;;;;;;;;;;5056284;28;20036;-22
2023/09/18 04:05:49;;;;;;;1.80;1.70;;;;;;;;;;5056532;28;20025;-19
2023/09/18 04:08:15;;;;;;;1.60;1.50;;;;;;;;;;5056240;28;20150;-18
2023/09/18 04:10:42;;;;;;;1.83;1.73;;;;;;;;;;5035087;28;20035;-21
2023/09/18 04:13:08;;;;;;;1.63;1.52;;;;;;;;;;5035521;28;20037;-24
2023/09/18 04:15:37;;;;;;;1.40;1.40;;;;;;;;;;5055985;28;20024;-21
2023/09/18 04:18:05;;;;;;;1.58;1.48;;;;;;;;;;5055807;28;20028;-22
2023/09/18 04:20:31;;;;;;;1.48;1.48;;;;;;;;;;5055681;28;20329;-21
2023/09/18 04:23:33;;;;;;;1.27;1.27;;;;;;;;;;5055379;28;20116;-18
2023/09/18 04:26:01;;;;;;;1.83;1.35;;;;;;;;;;4975517;28;20094;-22
2023/09/18 04:28:27;;;;;;;1.30;1.30;;;;;;;;;;5036339;28;20037;-25
2023/09/18 04:30:54;;;;;;;1.90;1.80;;;;;;;;;;5055381;28;20029;-19
2023/09/18 04:33:21;;;;;;;1.63;1.52;;;;;;;;;;5055693;28;20078;-20
2023/09/18 04:35:47;;;;;;;2.33;1.90;;;;;;;;;;5055235;28;20040;-20
2023/09/18 04:38:15;;;;;;;1.58;1.48;;;;;;;;;;5055391;28;20044;-20
2023/09/18 04:40:41;;;;;;;1.67;1.58;;;;;;;;;;5055299;28;20029;-20
2023/09/18 04:43:07;;;;;;;1.80;1.70;;;;;;;;;;5055123;28;20355;-19
2023/09/18 04:45:33;;;;;;;4.00;1.67;;;;;;;;;;5054383;28;20113;-21
2023/09/18 04:47:59;;;;;;;3.30;1.48;;;;;;;;;;5055326;28;20052;-21
2023/09/18 04:50:29;;;;;;;3.15;1.58;;;;;;;;;;5037135;28;20044;-22
2023/09/18 04:52:57;;;;;;;1.63;1.50;;;;;;;;;;5054807;28;20490;-19
2023/09/18 04:55:23;;;;;;;3.42;1.33;;;;;;;;;;5054949;28;20400;-20
2023/09/18 04:57:49;;;;;;;8.70;1.92;;;;;;;;;;5055094;28;20091;-20
2023/09/18 05:00:16;;;;;;;7.45;1.70;;;;;;;;;;5054688;28;20017;-21
2023/09/18 05:02:42;;;;;;;2.90;1.67;;;;;;;;;;5054679;28;20104;-22
2023/09/18 05:05:09;;;;;;;6.85;1.77;;;;;;;;;;5054630;28;20025;-21
2023/09/18 05:07:36;;;;;;;8.50;2.42;;;;;;;;;;5033853;28;20029;-20
2023/09/18 05:10:04;;;;;;;7.38;2.00;;;;;;;;;;5051318;28;20029;-20
2023/09/18 05:12:30;;;;;;;8.93;2.10;;;;;;;;;;5054562;28;20079;-20
2023/09/18 05:14:58;;;;;;;9.57;2.45;;;;;;;;;;5054634;28;20045;-23
2023/09/18 05:17:41;;;;;;;4.43;1.90;;;;;;;;;;5036643;28;20093;-23
2023/09/18 05:20:07;;;;;;;5.93;1.65;;;;;;;;;;5054710;28;20100;-23
2023/09/18 05:22:33;;;;;;;11.50;1.90;;;;;;;;;;5054904;28;20021;-21
2023/09/18 05:25:01;;;;;;;8.50;2.72;;;;;;;;;;5054441;28;20045;-26
2023/09/18 05:27:27;;;;;;;15.65;2.20;;;;;;;;;;5054758;28;20044;-22
2023/09/18 05:29:53;;;;;;;5.53;1.73;;;;;;;;;;5054446;28;20021;-21
2023/09/18 05:32:19;;;;;;;8.68;1.70;;;;;;;;;;5035554;28;20032;-23
2023/09/18 05:34:45;;;;;;;8.35;2.20;;;;;;;;;;5054325;28;20033;-24
2023/09/18 05:37:11;;;;;;;7.72;2.85;;;;;;;;;;5054151;28;20032;-21
2023/09/18 05:39:37;;;;;;;5.55;1.80;;;;;;;;;;5033516;28;20025;-23
2023/09/18 05:42:03;;;;;;;10.05;2.33;;;;;;;;;;5051349;28;20099;-20
2023/09/18 05:44:30;;;;;;;5.05;1.58;;;;;;;;;;5033495;28;20063;-21
2023/09/18 05:46:56;;;;;;;16.77;2.83;;;;;;;;;;5050041;28;20095;-20
2023/09/18 05:49:22;;;;;;;8.52;2.10;;;;;;;;;;5054615;28;20020;-21
2023/09/18 05:51:48;;;;;;;4.20;2.25;;;;;;;;;;5054269;28;20367;-24
2023/09/18 05:54:14;;;;;;;11.25;2.88;;;;;;;;;;5054574;28;20278;-20
2023/09/18 05:56:41;;;;;;;12.77;2.38;;;;;;;;;;5053944;28;20025;-23
2023/09/18 05:59:07;;;;;;;9.60;2.55;;;;;;;;;;5054424;28;20021;-20
2023/09/18 06:04:10;;;;;;;5.63;1.75;;;;;;;;;;4145670;26;20587;-25
2023/09/18 06:06:36;;;;;;;6.03;2.08;;;;;;;;;;5054234;28;20025;-25
2023/09/18 06:09:02;;;;;;;7.07;2.42;;;;;;;;;;5054262;28;20100;-28
2023/09/18 06:11:28;;;;;;;7.80;3.55;;;;;;;;;;5054196;28;20087;-28
2023/09/18 06:13:54;;;;;;;3.00;2.10;;;;;;;;;;5073296;28;20036;-28
2023/09/18 06:16:21;;;;;;;11.13;2.40;;;;;;;;;;5074397;28;20036;-27
2023/09/18 06:18:47;;;;;;;14.38;2.38;;;;;;;;;;5074207;28;20021;-26
2023/09/18 06:21:13;;;;;;;11.40;2.10;;;;;;;;;;5056324;28;20021;-25
2023/09/18 06:23:39;;;;;;;4.78;2.05;;;;;;;;;;5074306;28;20021;-31
2023/09/18 06:26:05;;;;;;;3.00;2.53;;;;;;;;;;5056365;28;20029;-25
2023/09/18 06:28:31;;;;;;;18.23;2.80;;;;;;;;;;5074123;28;20025;-27
2023/09/18 06:30:58;;;;;;;4.10;1.90;;;;;;;;;;5056354;28;20051;-27
2023/09/18 06:33:24;;;;;;;7.65;1.90;;;;;;;;;;5074087;28;20086;-27
2023/09/18 06:35:51;;;;;;;2.85;1.92;;;;;;;;;;5073838;28;20082;-27
2023/09/18 06:38:17;;;;;;;3.78;1.80;;;;;;;;;;5073988;28;20020;-28
2023/09/18 06:40:44;;;;;;;3.47;1.90;;;;;;;;;;5073705;28;20017;-23
2023/09/18 06:43:10;;;;;;;4.85;1.80;;;;;;;;;;5056012;28;20021;-28
2023/09/18 06:45:37;;;;;;;5.43;1.88;;;;;;;;;;5055927;28;20025;-25
2023/09/18 06:48:04;;;;;;;5.88;2.28;;;;;;;;;;5073804;28;20020;-24
2023/09/18 06:50:30;;;;;;;8.30;1.98;;;;;;;;;;5073894;28;20362;-27
2023/09/18 06:52:57;;;;;;;7.43;2.38;;;;;;;;;;5073423;28;20024;-29
2023/09/18 06:55:23;;;;;;;7.60;2.65;;;;;;;;;;5073583;28;20054;-25
2023/09/18 06:57:51;;;;;;;10.48;2.20;;;;;;;;;;5073597;28;20021;-23
2023/09/18 07:00:21;;;;;;;9.27;2.65;;;;;;;;;;5056081;28;20056;-28
2023/09/18 07:02:49;;;;;;;4.97;1.90;;;;;;;;;;5055515;28;20083;-25
2023/09/18 07:05:15;;;;;;;7.50;2.85;;;;;;;;;;5074061;28;20077;-26
2023/09/18 07:07:41;;;;;;;9.02;2.28;;;;;;;;;;5073938;28;20028;-25
2023/09/18 07:10:07;;;;;;;8.73;2.00;;;;;;;;;;5076736;28;20059;-30
2023/09/18 07:12:34;;;;;;;11.60;3.25;;;;;;;;;;5077116;28;20017;-29
2023/09/18 07:15:04;;;;;;;6.47;2.20;;;;;;;;;;5077235;28;20013;-23
2023/09/18 07:17:30;;;;;;;7.28;2.38;;;;;;;;;;5076898;28;20566;-27
2023/09/18 07:19:56;;;;;;;7.43;2.45;;;;;;;;;;5077154;28;20103;-25
2023/09/18 07:22:23;;;;;;;6.32;2.20;;;;;;;;;;5059516;28;20094;-28
2023/09/18 07:24:49;;;;;;;13.68;2.40;;;;;;;;;;5077382;28;20024;-24
2023/09/18 07:27:15;;;;;;;5.65;1.98;;;;;;;;;;5077050;28;20358;-20
2023/09/18 07:29:41;;;;;;;5.70;2.50;;;;;;;;;;5076920;28;20076;-22
2023/09/18 07:32:09;;;;;;;4.30;2.38;;;;;;;;;;5076770;28;20021;-22
2023/09/18 07:34:35;;;;;;;7.00;2.45;;;;;;;;;;5059149;28;20056;-24
2023/09/18 07:37:01;;;;;;;11.98;2.78;;;;;;;;;;5076605;28;20029;-26
2023/09/18 07:39:27;;;;;;;12.05;3.28;;;;;;;;;;5076515;28;20090;-20
2023/09/18 07:41:55;;;;;;;5.43;2.65;;;;;;;;;;5076618;28;20031;-28
2023/09/18 07:44:22;;;;;;;15.35;3.53;;;;;;;;;;5076424;28;20090;-26
2023/09/18 07:46:48;;;;;;;5.93;2.42;;;;;;;;;;5076421;28;20477;-24
2023/09/18 07:49:14;;;;;;;6.63;4.88;;;;;;;;;;5076301;28;20035;-25
2023/09/18 07:51:40;;;;;;;10.70;2.70;;;;;;;;;;5076244;28;20035;-23
2023/09/18 07:54:07;;;;;;;13.63;2.75;;;;;;;;;;5076724;28;20511;-23
2023/09/18 07:56:34;;;;;;;8.75;2.17;;;;;;;;;;5076517;28;20359;-27
2023/09/18 07:59:01;;;;;;;29.15;3.53;;;;;;;;;;5076489;28;20025;-24
2023/09/18 08:01:27;;;;;;;20.05;3.00;;;;;;;;;;5076357;28;20016;-23
2023/09/18 08:03:53;;;;;;;10.90;2.70;;;;;;;;;;5075880;28;20045;-23
2023/09/18 08:06:21;;;;;;;12.80;3.33;;;;;;;;;;5076137;28;20454;-23
2023/09/18 08:08:47;;;;;;;13.48;2.30;;;;;;;;;;5058332;28;20033;-22
2023/09/18 08:11:14;;;;;;;8.23;3.15;;;;;;;;;;5075871;28;20029;-21
2023/09/18 08:13:40;;;;;;;4.78;2.45;;;;;;;;;;5075951;28;20085;-22
2023/09/18 08:16:07;;;;;;;8.57;2.83;;;;;;;;;;5058173;28;20119;-24
2023/09/18 08:18:34;;;;;;;12.55;3.75;;;;;;;;;;5076139;28;20339;-21
2023/09/18 08:21:00;;;;;;;9.65;3.22;;;;;;;;;;5076063;28;20025;-22
2023/09/18 08:23:26;;;;;;;19.35;2.80;;;;;;;;;;5076125;28;20343;-26
2023/09/18 08:25:56;;;;;;;8.18;2.45;;;;;;;;;;5075844;28;20024;-25
2023/09/18 08:28:22;;;;;;;11.60;3.33;;;;;;;;;;5076090;28;20103;-25
2023/09/18 08:30:48;;;;;;;16.70;2.80;;;;;;;;;;5075730;28;20035;-25
2023/09/18 08:33:15;;;;;;;7.88;2.67;;;;;;;;;;5058181;28;20066;-24
2023/09/18 08:35:41;;;;;;;15.68;2.63;;;;;;;;;;5076108;28;20043;-22
2023/09/18 08:38:07;;;;;;;11.52;2.92;;;;;;;;;;5075414;28;20025;-26
2023/09/18 08:40:35;;;;;;;16.58;3.15;;;;;;;;;;5075333;28;20131;-22
2023/09/18 08:43:03;;;;;;;9.90;3.33;;;;;;;;;;5057338;28;20024;-26
2023/09/18 08:45:29;;;;;;;11.35;3.08;;;;;;;;;;5075229;28;20019;-21
2023/09/18 08:47:56;;;;;;;15.43;3.17;;;;;;;;;;5074939;28;20024;-25
2023/09/18 08:50:22;;;;;;;14.90;2.78;;;;;;;;;;5075042;28;20074;-22
2023/09/18 08:52:49;;;;;;;5.50;2.92;;;;;;;;;;5075140;28;20044;-21
2023/09/18 08:55:16;;;;;;;7.82;2.53;;;;;;;;;;5057400;28;20081;-22
2023/09/18 08:57:44;;;;;;;3.70;2.28;;;;;;;;;;5057296;28;20115;-22
2023/09/18 09:00:16;;;;;;;6.30;2.67;;;;;;;;;;5075006;28;20103;-26
2023/09/18 09:02:43;;;;;;;6.40;2.75;;;;;;;;;;5071200;28;20053;-20
2023/09/18 09:05:09;;;;;;;6.90;2.60;;;;;;;;;;5036990;28;20032;-23
2023/09/18 09:07:35;;;;;;;4.30;3.05;;;;;;;;;;5054623;28;20456;-22
2023/09/18 09:10:01;;;;;;;6.60;2.45;;;;;;;;;;5054703;28;20359;-24
2023/09/18 09:12:46;;;;;;;11.77;4.28;;;;;;;;;;5054843;28;20029;-25
2023/09/18 09:15:12;;;;;;;5.93;2.03;;;;;;;;;;5054728;28;20368;-24
2023/09/18 09:17:39;;;;;;;9.80;3.28;;;;;;;;;;5054557;28;20028;-22
2023/09/18 09:20:15;;;;;;;7.85;3.17;;;;;;;;;;5037022;28;20036;-19
2023/09/18 09:22:42;;;;;;;8.25;2.30;;;;;;;;;;5036889;28;20414;-25
2023/09/18 09:25:20;;;;;;;2.88;2.20;;;;;;;;;;5054606;28;20328;-21
2023/09/18 09:27:46;;;;;;;7.78;2.60;;;;;;;;;;5054632;28;20444;-22
2023/09/18 09:30:18;;;;;;;5.93;2.60;;;;;;;;;;5054792;28;20035;-21
2023/09/18 09:32:48;;;;;;;5.68;2.55;;;;;;;;;;5054068;28;20031;-20
2023/09/18 09:35:19;;;;;;;6.88;2.80;;;;;;;;;;5054921;28;20031;-25
2023/09/18 09:37:45;;;;;;;10.05;3.13;;;;;;;;;;5037307;28;20132;-23
2023/09/18 09:40:14;;;;;;;10.00;2.10;;;;;;;;;;5036950;28;20436;-24
2023/09/18 09:42:41;;;;;;;7.82;2.30;;;;;;;;;;5054679;28;20329;-22
2023/09/18 09:45:16;;;;;;;23.98;4.15;;;;;;;;;;5036902;28;20036;-26
2023/09/18 09:47:43;;;;;;;7.55;3.30;;;;;;;;;;5054777;28;20025;-25
2023/09/18 09:50:10;;;;;;;4.68;2.92;;;;;;;;;;5054755;28;20397;-21
2023/09/18 09:52:37;;;;;;;8.18;3.10;;;;;;;;;;5054785;28;20028;-26
2023/09/18 09:55:18;;;;;;;6.97;2.65;;;;;;;;;;5054517;28;20029;-23
2023/09/18 09:57:48;;;;;;;7.03;1.98;;;;;;;;;;5054536;28;20384;-30
2023/09/18 10:00:27;;;;;;;6.95;2.20;;;;;;;;;;5054236;28;20032;-23
2023/09/18 10:02:58;;;;;;;11.02;2.92;;;;;;;;;;5059304;28;20045;-24
2023/09/18 10:05:28;;;;;;;15.40;2.78;;;;;;;;;;5074257;28;20020;-21
2023/09/18 10:07:55;;;;;;;8.95;2.78;;;;;;;;;;5074367;28;20107;-29
2023/09/18 10:10:21;;;;;;;10.65;2.92;;;;;;;;;;5074543;28;20451;-23
2023/09/18 10:12:49;;;;;;;15.85;2.92;;;;;;;;;;5073943;28;20021;-23
2023/09/18 10:15:16;;;;;;;7.03;2.85;;;;;;;;;;5074130;28;20024;-24
2023/09/18 10:17:44;;;;;;;6.28;2.58;;;;;;;;;;5074084;28;20024;-21
2023/09/18 10:20:19;;;;;;;6.28;2.80;;;;;;;;;;5074406;28;20359;-22
2023/09/18 10:22:49;;;;;;;10.80;3.35;;;;;;;;;;5056300;28;20028;-27
2023/09/18 10:25:22;;;;;;;13.00;3.42;;;;;;;;;;5074476;28;20037;-26
2023/09/18 10:27:49;;;;;;;20.58;4.00;;;;;;;;;;5056621;28;20469;-28
2023/09/18 10:30:19;;;;;;;6.85;2.72;;;;;;;;;;5074070;28;20021;-24
2023/09/18 10:32:48;;;;;;;8.20;3.20;;;;;;;;;;5074261;28;20020;-21
2023/09/18 10:35:14;;;;;;;9.05;2.83;;;;;;;;;;5074230;28;20048;-21
2023/09/18 10:37:41;;;;;;;13.10;3.05;;;;;;;;;;5073933;28;20415;-25
2023/09/18 10:40:09;;;;;;;11.50;3.30;;;;;;;;;;5073950;28;20033;-22
2023/09/18 10:42:35;;;;;;;18.75;3.25;;;;;;;;;;5073749;28;20031;-26
2023/09/18 10:45:04;;;;;;;20.52;3.15;;;;;;;;;;5077646;28;20042;-27
2023/09/18 10:47:31;;;;;;;14.98;3.22;;;;;;;;;;5060708;28;20077;-23
2023/09/18 10:49:57;;;;;;;9.05;3.28;;;;;;;;;;5077630;28;20037;-26
2023/09/18 10:52:23;;;;;;;7.20;2.70;;;;;;;;;;5077800;28;20403;-20
2023/09/18 10:54:49;;;;;;;8.00;3.22;;;;;;;;;;5077579;28;20447;-23
2023/09/18 10:57:16;;;;;;;5.68;3.33;;;;;;;;;;5077677;28;20367;-25
2023/09/18 10:59:47;;;;;;;5.55;2.90;;;;;;;;;;5077495;28;20406;-25
2023/09/18 11:02:17;;;;;;;9.90;2.60;;;;;;;;;;5077359;28;20059;-22
2023/09/18 11:04:44;;;;;;;9.63;2.65;;;;;;;;;;5077696;28;20036;-23
2023/09/18 11:07:20;;;;;;;7.07;2.88;;;;;;;;;;5077396;28;20029;-24
2023/09/18 11:09:46;;;;;;;11.50;4.05;;;;;;;;;;5059764;28;20036;-20
2023/09/18 11:12:15;;;;;;;10.85;3.85;;;;;;;;;;5077233;28;20031;-26
2023/09/18 11:14:44;;;;;;;7.22;2.15;;;;;;;;;;5077566;28;20062;-24
2023/09/18 11:17:29;;;;;;;6.38;3.15;;;;;;;;;;5077476;28;20028;-19
2023/09/18 11:20:12;;;;;;;6.95;2.90;;;;;;;;;;5077170;28;20046;-23
2023/09/18 11:22:47;;;;;;;6.13;3.50;;;;;;;;;;5077279;28;20363;-20
2023/09/18 11:25:31;;;;;;;7.05;2.70;;;;;;;;;;5076916;28;20050;-23
2023/09/18 11:27:57;;;;;;;3.65;2.88;;;;;;;;;;5077201;28;20021;-21
2023/09/18 11:30:23;;;;;;;9.02;2.80;;;;;;;;;;5077111;28;20028;-23
2023/09/18 11:32:50;;;;;;;12.43;3.90;;;;;;;;;;5076886;28;20420;-24
2023/09/18 11:35:19;;;;;;;11.70;3.20;;;;;;;;;;5077057;28;20095;-28
2023/09/18 11:37:46;;;;;;;8.63;3.08;;;;;;;;;;5076859;28;20016;-24
2023/09/18 11:40:33;;;;;;;14.50;3.60;;;;;;;;;;5059037;28;20311;-22
2023/09/18 11:43:18;;;;;;;11.52;3.53;;;;;;;;;;5076651;28;20024;-21
2023/09/18 11:45:47;;;;;;;7.50;2.70;;;;;;;;;;5076900;28;20320;-21
2023/09/18 11:48:14;;;;;;;4.68;2.90;;;;;;;;;;5076799;28;20096;-22
2023/09/18 11:50:42;;;;;;;8.48;3.08;;;;;;;;;;5076715;28;20074;-21
2023/09/18 11:53:08;;;;;;;9.70;3.00;;;;;;;;;;5076386;28;20400;-26
2023/09/18 11:55:36;;;;;;;12.15;3.08;;;;;;;;;;5075954;28;20020;-25
2023/09/18 11:58:04;;;;;;;11.77;3.13;;;;;;;;;;5076870;28;20401;-25
2023/09/18 12:00:30;;;;;;;12.75;3.10;;;;;;;;;;5076443;28;20021;-24
2023/09/18 12:02:58;;;;;;;7.05;2.75;;;;;;;;;;5076157;28;20036;-22
2023/09/18 12:05:27;;;;;;;12.65;3.17;;;;;;;;;;5076450;28;20466;-24
2023/09/18 12:07:54;;;;;;;7.00;3.45;;;;;;;;;;5076034;28;20096;-22
2023/09/18 12:10:21;;;;;;;7.82;3.22;;;;;;;;;;5059102;28;20031;-24
2023/09/18 12:12:47;;;;;;;18.83;3.03;;;;;;;;;;5075966;28;20113;-26
2023/09/18 12:15:15;;;;;;;12.68;3.00;;;;;;;;;;5076809;28;20032;-24
2023/09/18 12:17:41;;;;;;;9.52;2.80;;;;;;;;;;5076127;28;20211;-22
2023/09/18 12:20:07;;;;;;;9.48;4.05;;;;;;;;;;5076206;28;20031;-23
2023/09/18 12:22:36;;;;;;;13.30;4.53;;;;;;;;;;5075840;28;20028;-24
2023/09/18 12:25:16;;;;;;;7.13;3.40;;;;;;;;;;5076077;28;20343;-24
2023/09/18 12:27:43;;;;;;;10.17;3.53;;;;;;;;;;5075867;28;20469;-22
2023/09/18 12:30:09;;;;;;;7.50;2.95;;;;;;;;;;5075750;28;20048;-23
2023/09/18 12:32:39;;;;;;;5.85;2.95;;;;;;;;;;5075579;28;20036;-22
2023/09/18 12:35:09;;;;;;;14.15;3.40;;;;;;;;;;5076283;28;20051;-20
2023/09/18 12:37:36;;;;;;;4.78;2.60;;;;;;;;;;5075773;28;20347;-25
2023/09/18 12:40:07;;;;;;;10.65;3.42;;;;;;;;;;5075474;28;20017;-24
2023/09/18 12:42:33;;;;;;;8.90;3.13;;;;;;;;;;5075691;28;20012;-27
2023/09/18 12:45:00;;;;;;;12.25;3.17;;;;;;;;;;5058061;28;20048;-30
2023/09/18 12:47:26;;;;;;;5.00;3.20;;;;;;;;;;5075437;28;20029;-26
2023/09/18 12:49:52;;;;;;;8.88;2.70;;;;;;;;;;5075408;28;20029;-22
2023/09/18 12:52:22;;;;;;;8.13;2.88;;;;;;;;;;5075536;28;20423;-24
2023/09/18 12:54:54;;;;;;;8.00;3.58;;;;;;;;;;5075257;28;20115;-26
2023/09/18 12:57:20;;;;;;;13.52;3.28;;;;;;;;;;5075491;28;20359;-26
2023/09/18 12:59:49;;;;;;;8.43;3.17;;;;;;;;;;5075220;28;20108;-25
2023/09/18 13:02:15;;;;;;;5.03;2.75;;;;;;;;;;5075109;28;20359;-24
2023/09/18 13:04:41;;;;;;;7.03;3.72;;;;;;;;;;5075145;28;20036;-23
2023/09/18 13:07:10;;;;;;;9.85;2.70;;;;;;;;;;5074530;28;20051;-26
2023/09/18 13:09:37;;;;;;;9.05;2.75;;;;;;;;;;5074945;28;20093;-21
2023/09/18 13:12:03;;;;;;;9.07;2.70;;;;;;;;;;5074924;28;20032;-27
2023/09/18 13:14:30;;;;;;;7.97;3.13;;;;;;;;;;5074974;28;20035;-24
2023/09/18 13:17:05;;;;;;;7.45;3.50;;;;;;;;;;5074626;28;20119;-25
2023/09/18 13:19:31;;;;;;;5.80;3.30;;;;;;;;;;5074776;28;20099;-26
2023/09/18 13:21:58;;;;;;;5.07;3.38;;;;;;;;;;5074908;28;20024;-24
2023/09/18 13:24:25;;;;;;;10.45;3.00;;;;;;;;;;5074773;28;20036;-22
2023/09/18 13:26:51;;;;;;;6.68;2.80;;;;;;;;;;5074594;28;20359;-27
2023/09/18 13:29:17;;;;;;;8.43;3.08;;;;;;;;;;5074787;28;20058;-27
2023/09/18 13:31:43;;;;;;;7.68;3.45;;;;;;;;;;5074585;28;20024;-24
2023/09/18 13:34:09;;;;;;;7.18;3.25;;;;;;;;;;5074387;28;20056;-26
2023/09/18 13:36:37;;;;;;;6.00;2.92;;;;;;;;;;5074462;28;20024;-23
2023/09/18 13:39:03;;;;;;;8.88;2.65;;;;;;;;;;5074371;28;20017;-23
2023/09/18 13:41:31;;;;;;;9.50;2.80;;;;;;;;;;5056735;28;20032;-24
2023/09/18 13:43:57;;;;;;;8.15;2.92;;;;;;;;;;5074682;28;20016;-24
2023/09/18 13:46:23;;;;;;;5.32;2.92;;;;;;;;;;5074820;28;20040;-25
2023/09/18 13:48:50;;;;;;;8.15;3.25;;;;;;;;;;5074630;28;20119;-25
2023/09/18 13:51:17;;;;;;;13.70;3.15;;;;;;;;;;5074522;28;20039;-22
2023/09/18 13:53:43;;;;;;;4.47;2.58;;;;;;;;;;5074269;28;20043;-24
2023/09/18 13:56:09;;;;;;;5.88;2.40;;;;;;;;;;5074262;28;20029;-23
2023/09/18 13:58:41;;;;;;;11.65;2.90;;;;;;;;;;5057536;28;20074;-20
2023/09/18 14:01:07;;;;;;;7.85;2.75;;;;;;;;;;5074673;28;20021;-21
2023/09/18 14:03:34;;;;;;;11.23;2.97;;;;;;;;;;5074030;28;20113;-20
2023/09/18 14:06:00;;;;;;;14.13;3.35;;;;;;;;;;5074186;28;20024;-20
2023/09/18 14:08:26;;;;;;;10.40;2.85;;;;;;;;;;5074014;28;20039;-23
2023/09/18 14:10:52;;;;;;;13.27;4.55;;;;;;;;;;5073764;28;20036;-24
2023/09/18 14:13:18;;;;;;;8.35;2.53;;;;;;;;;;5073952;28;20040;-24
2023/09/18 14:15:44;;;;;;;12.20;3.28;;;;;;;;;;5074115;28;20051;-27
2023/09/18 14:18:13;;;;;;;8.43;2.97;;;;;;;;;;5075715;28;20485;-28
2023/09/18 14:20:41;;;;;;;7.30;3.10;;;;;;;;;;5060345;28;20025;-29
2023/09/18 14:23:07;;;;;;;8.13;2.95;;;;;;;;;;5060217;28;20024;-20
2023/09/18 14:25:33;;;;;;;10.50;3.42;;;;;;;;;;5077822;28;20036;-29
2023/09/18 14:27:59;;;;;;;7.72;3.00;;;;;;;;;;5078057;28;20026;-24
2023/09/18 14:30:31;;;;;;;6.18;3.38;;;;;;;;;;5078116;28;20036;-23
2023/09/18 14:32:57;;;;;;;8.38;2.75;;;;;;;;;;5078149;28;20107;-26
2023/09/18 14:35:23;;;;;;;13.90;3.28;;;;;;;;;;5077924;28;20025;-22
2023/09/18 14:37:49;;;;;;;6.53;2.42;;;;;;;;;;5060138;28;20028;-24
2023/09/18 14:40:15;;;;;;;8.43;2.83;;;;;;;;;;5077812;28;20048;-20
2023/09/18 14:42:42;;;;;;;8.07;2.63;;;;;;;;;;5077965;28;20445;-22
2023/09/18 14:45:08;;;;;;;10.38;3.72;;;;;;;;;;5077615;28;20024;-28